createdAt,value
2022-09-23T00:00:39.319Z,6.10
2022-09-23T00:05:41.097Z,6.10
2022-09-23T00:10:42.899Z,6.10
2022-09-23T00:15:44.623Z,6.10
2022-09-23T00:20:46.441Z,6.00
2022-09-23T00:26:00.355Z,6.10
2022-09-23T00:31:06.470Z,6.00
2022-09-23T00:36:12.096Z,6.10
2022-09-23T00:41:16.052Z,6.10
2022-09-23T00:46:26.282Z,6.10
2022-09-23T00:51:35.024Z,6.10
2022-09-23T00:56:38.484Z,6.10
2022-09-23T01:01:40.853Z,6.20
2022-09-23T01:06:42.877Z,6.20
2022-09-23T01:12:03.070Z,6.20
2022-09-23T01:17:13.674Z,6.20
2022-09-23T01:22:27.032Z,6.30
2022-09-23T01:27:53.272Z,6.20
2022-09-23T01:32:57.858Z,6.20
2022-09-23T01:38:31.992Z,6.20
2022-09-23T01:44:01.003Z,6.20
2022-09-23T01:49:21.800Z,6.20
2022-09-23T01:54:38.840Z,6.20
2022-09-23T01:59:47.106Z,6.30
2022-09-23T02:04:57.170Z,6.20
2022-09-23T02:10:17.136Z,6.20
2022-09-23T02:15:24.783Z,6.10
2022-09-23T02:20:33.413Z,6.00
2022-09-23T02:25:56.560Z,5.90
2022-09-23T02:31:32.783Z,6.00
2022-09-23T02:37:10.620Z,6.00
2022-09-23T02:42:24.863Z,6.00
2022-09-23T02:47:31.371Z,5.90
2022-09-23T02:52:33.667Z,6.00
2022-09-23T02:57:35.614Z,6.00
2022-09-23T03:03:00.855Z,6.00
2022-09-23T03:08:45.457Z,6.00
2022-09-23T03:14:18.004Z,6.00
2022-09-23T03:19:24.044Z,6.00
2022-09-23T03:24:27.869Z,5.90
2022-09-23T03:29:30.564Z,5.90
2022-09-23T03:34:34.970Z,5.70
2022-09-23T03:39:44.190Z,5.70
2022-09-23T03:44:53.946Z,5.50
2022-09-23T03:49:56.746Z,5.60
2022-09-23T03:54:58.500Z,5.60
2022-09-23T04:00:00.308Z,5.40
2022-09-23T04:05:02.071Z,5.30
2022-09-23T04:10:05.054Z,5.30
2022-09-23T04:15:07.329Z,5.30
2022-09-23T04:20:09.876Z,5.30
2022-09-23T04:25:11.605Z,5.30
2022-09-23T04:30:13.674Z,5.30
2022-09-23T04:35:15.561Z,5.20
2022-09-23T04:40:17.338Z,5.20
2022-09-23T04:45:19.209Z,5.20
2022-09-23T04:50:21.039Z,5.10
2022-09-23T04:55:22.941Z,5.10
2022-09-23T05:00:24.713Z,5.00
2022-09-23T05:05:28.091Z,4.90
2022-09-23T05:10:29.822Z,5.00
2022-09-23T05:15:31.536Z,4.90
2022-09-23T05:20:33.298Z,5.00
2022-09-23T05:25:38.219Z,5.00
2022-09-23T05:30:40.181Z,5.00
2022-09-23T05:35:47.400Z,5.10
2022-09-23T05:40:56.425Z,5.20
2022-09-23T05:46:10.536Z,5.20
2022-09-23T05:51:18.394Z,5.20
2022-09-23T05:56:21.470Z,5.30
2022-09-23T06:01:26.322Z,5.30
2022-09-23T06:06:33.691Z,5.40
2022-09-23T06:11:36.471Z,5.60
2022-09-23T06:16:38.203Z,5.70
2022-09-23T06:21:40.973Z,5.90
2022-09-23T06:26:42.754Z,6.10
2022-09-23T06:31:44.737Z,6.30
2022-09-23T06:36:46.867Z,6.50
2022-09-23T06:41:48.634Z,6.70
2022-09-23T06:46:51.197Z,7.10
2022-09-23T06:51:52.945Z,7.50
2022-09-23T06:56:55.388Z,7.80
2022-09-23T07:01:57.228Z,8.10
2022-09-23T07:06:59.236Z,8.40
2022-09-23T07:12:01.119Z,8.70
2022-09-23T07:17:03.621Z,9.00
2022-09-23T07:22:05.432Z,9.30
2022-09-23T07:27:07.144Z,9.60
2022-09-23T07:32:14.008Z,9.70
2022-09-23T07:37:17.252Z,9.70
2022-09-23T07:42:18.983Z,9.80
2022-09-23T07:47:20.742Z,10.10
2022-09-23T07:52:23.131Z,10.30
2022-09-23T07:57:24.911Z,10.80
2022-09-23T08:02:27.023Z,11.00
2022-09-23T08:07:28.817Z,11.30
2022-09-23T08:12:31.050Z,11.60
2022-09-23T08:17:32.805Z,11.80
2022-09-23T08:22:34.524Z,12.00
2022-09-23T08:27:36.246Z,12.10
2022-09-23T08:32:37.992Z,12.40
2022-09-23T08:37:39.792Z,12.50
2022-09-23T08:42:44.058Z,12.60
2022-09-23T08:48:12.935Z,12.90
2022-09-23T08:53:35.343Z,13.00
2022-09-23T08:58:44.283Z,13.20
2022-09-23T09:04:12.689Z,13.40
2022-09-23T09:09:29.094Z,13.60
2022-09-23T09:15:01.289Z,13.80
2022-09-23T09:20:16.148Z,13.90
2022-09-23T09:25:23.684Z,14.00
2022-09-23T09:30:25.628Z,14.20
2022-09-23T09:36:14.647Z,14.40
2022-09-23T09:41:18.085Z,14.40
2022-09-23T09:46:51.128Z,14.50
2022-09-23T09:52:19.408Z,14.50
2022-09-23T09:57:33.587Z,14.60
2022-09-23T10:02:40.685Z,14.60
2022-09-23T10:07:42.454Z,14.70
2022-09-23T10:12:46.996Z,14.80
2022-09-23T10:17:51.679Z,14.80
2022-09-23T10:22:53.535Z,14.90
2022-09-23T10:27:55.275Z,15.00
2022-09-23T10:32:57.221Z,15.20
2022-09-23T10:38:02.053Z,15.20
2022-09-23T10:43:57.759Z,15.30
2022-09-23T10:49:21.126Z,15.40
2022-09-23T10:54:31.911Z,15.40
2022-09-23T11:00:24.888Z,15.60
2022-09-23T11:05:58.962Z,15.60
2022-09-23T11:11:23.318Z,15.80
2022-09-23T11:16:40.847Z,15.90
2022-09-23T11:22:15.950Z,16.00
2022-09-23T11:27:31.319Z,16.10
2022-09-23T11:32:51.752Z,16.10
2022-09-23T11:38:25.240Z,16.30
2022-09-23T11:43:31.261Z,16.40
2022-09-23T11:48:42.070Z,16.30
2022-09-23T11:54:22.822Z,16.40
2022-09-23T12:05:06.704Z,16.50
2022-09-23T12:10:10.632Z,16.50
2022-09-23T12:15:47.035Z,16.60
2022-09-23T12:21:18.298Z,16.50
2022-09-23T12:26:31.179Z,16.50
2022-09-23T12:31:40.381Z,16.40
2022-09-23T12:36:43.948Z,16.50
2022-09-23T12:41:53.893Z,16.50
2022-09-23T12:47:24.983Z,16.50
2022-09-23T12:52:32.603Z,16.40
2022-09-23T12:57:34.451Z,16.40
2022-09-23T13:02:46.715Z,16.30
2022-09-23T13:07:50.154Z,16.20
2022-09-23T13:12:53.325Z,16.10
2022-09-23T13:18:21.068Z,16.00
2022-09-23T13:23:22.791Z,16.00
2022-09-23T13:28:33.931Z,15.90
2022-09-23T13:33:43.892Z,15.90
2022-09-23T13:38:49.139Z,15.90
2022-09-23T13:43:54.060Z,15.80
2022-09-23T13:48:56.547Z,15.70
2022-09-23T13:54:00.243Z,15.70
2022-09-23T13:59:20.515Z,15.50
2022-09-23T14:04:26.426Z,15.40
2022-09-23T14:09:30.232Z,15.30
2022-09-23T14:14:37.118Z,15.20
2022-09-23T14:19:39.110Z,15.10
2022-09-23T14:24:41.175Z,15.00
2022-09-23T14:29:46.519Z,14.80
2022-09-23T14:35:00.808Z,14.60
2022-09-23T14:40:09.739Z,14.50
2022-09-23T14:45:18.796Z,14.30
2022-09-23T14:50:40.388Z,14.20
2022-09-23T14:55:43.900Z,14.00
2022-09-23T15:00:54.357Z,13.90
2022-09-23T15:06:08.509Z,13.80
2022-09-23T15:11:11.808Z,13.60
2022-09-23T15:16:15.902Z,13.60
2022-09-23T15:21:21.266Z,13.60
2022-09-23T15:26:39.293Z,13.60
2022-09-23T15:31:41.329Z,13.60
2022-09-23T15:36:43.125Z,13.50
2022-09-23T15:41:44.908Z,13.40
2022-09-23T15:46:51.930Z,13.30
2022-09-23T15:51:55.797Z,13.20
2022-09-23T15:56:58.038Z,13.00
2022-09-23T16:02:05.716Z,12.90
2022-09-23T16:07:14.291Z,12.70
2022-09-23T16:12:16.200Z,12.50
2022-09-23T16:17:18.424Z,12.50
2022-09-23T16:22:20.244Z,12.20
2022-09-23T16:27:22.495Z,12.10
2022-09-23T16:32:24.329Z,11.90
2022-09-23T16:37:26.306Z,11.70
2022-09-23T16:42:28.659Z,11.50
2022-09-23T16:47:31.202Z,11.40
2022-09-23T16:52:32.936Z,11.20
2022-09-23T16:57:38.935Z,11.00
2022-09-23T17:02:58.977Z,10.90
2022-09-23T17:08:00.877Z,10.70
2022-09-23T17:13:02.883Z,10.60
2022-09-23T17:18:06.505Z,10.50
2022-09-23T17:23:08.263Z,10.40
2022-09-23T17:28:10.345Z,10.30
2022-09-23T17:33:12.289Z,10.20
2022-09-23T17:38:14.042Z,10.10
2022-09-23T17:43:16.637Z,10.10
2022-09-23T17:48:19.473Z,10.00
2022-09-23T17:53:21.438Z,9.90
2022-09-23T17:58:28.095Z,9.80
2022-09-23T18:03:31.700Z,9.80
2022-09-23T18:08:33.437Z,9.70
2022-09-23T18:13:35.188Z,9.60
2022-09-23T18:18:36.992Z,9.50
2022-09-23T18:23:38.802Z,9.50
2022-09-23T18:28:40.835Z,9.30
2022-09-23T18:33:42.778Z,9.20
2022-09-23T18:38:46.078Z,9.00
2022-09-23T18:43:49.083Z,8.90
2022-09-23T18:49:11.010Z,8.90
2022-09-23T18:54:12.804Z,8.90
2022-09-23T18:59:17.718Z,8.70
2022-09-23T19:04:21.459Z,8.70
2022-09-23T19:09:23.520Z,8.70
2022-09-23T19:14:25.334Z,8.60
2022-09-23T19:19:30.034Z,8.50
2022-09-23T19:24:31.836Z,8.50
2022-09-23T19:29:33.574Z,8.40
2022-09-23T19:34:35.817Z,8.30
2022-09-23T19:39:37.610Z,8.40
2022-09-23T19:44:40.915Z,8.40
2022-09-23T19:49:42.824Z,8.40
2022-09-23T19:54:45.117Z,8.30
2022-09-23T19:59:46.911Z,8.20
2022-09-23T20:04:51.367Z,8.20
2022-09-23T20:09:53.114Z,8.30
2022-09-23T20:14:54.927Z,8.30
2022-09-23T20:19:56.983Z,8.20
2022-09-23T20:24:59.498Z,8.20
2022-09-23T20:30:01.875Z,8.20
2022-09-23T20:35:05.658Z,8.20
2022-09-23T20:40:08.425Z,8.10
2022-09-23T20:45:10.515Z,8.00
2022-09-23T20:50:12.244Z,8.00
2022-09-23T20:55:14.215Z,7.90
2022-09-23T21:00:18.292Z,8.00
2022-09-23T21:05:20.204Z,7.90
2022-09-23T21:10:22.701Z,7.90
2022-09-23T21:15:24.444Z,8.00
2022-09-23T21:20:26.394Z,8.10
2022-09-23T21:25:29.607Z,8.00
2022-09-23T21:30:32.188Z,8.00
2022-09-23T21:35:33.957Z,8.00
2022-09-23T21:40:54.633Z,8.00
2022-09-23T21:46:01.154Z,7.90
2022-09-23T21:51:08.225Z,7.90
2022-09-23T21:56:15.721Z,7.90
2022-09-23T22:01:22.535Z,7.80
2022-09-23T22:06:28.847Z,7.90
2022-09-23T22:11:50.670Z,7.90
2022-09-23T22:16:57.473Z,7.90
2022-09-23T22:22:00.063Z,8.00
2022-09-23T22:27:01.875Z,8.00
2022-09-23T22:32:24.627Z,8.00
2022-09-23T22:37:30.238Z,8.00
2022-09-23T22:42:32.456Z,7.90
2022-09-23T22:47:38.052Z,7.90
2022-09-23T22:52:40.544Z,7.90
2022-09-23T22:57:42.280Z,8.00
2022-09-23T23:02:43.983Z,7.90
2022-09-23T23:07:45.716Z,7.90
2022-09-23T23:12:49.104Z,7.80
2022-09-23T23:17:53.671Z,7.70
2022-09-23T23:22:55.624Z,7.80
2022-09-23T23:27:57.872Z,7.90
2022-09-23T23:32:59.607Z,8.00
2022-09-23T23:38:01.385Z,7.90
2022-09-23T23:43:05.163Z,7.90
2022-09-23T23:48:06.905Z,8.00
2022-09-23T23:53:11.684Z,8.10
2022-09-23T23:58:14.411Z,8.20
